Crestwood, Illinois
Current Conditions -  °F | °C
As of 12:19 PM on Thursday 18 Dec 2014 (Local Time) from KMDW Reporting Station
Broken Clouds Broken Clouds  
Wind Chill: 19°   Ceiling: 25000
Heat Index: 27°   Visibility: 10mi
Dew Point: 18°   Wind: 7mph
Humidity: 69%   Direction: 230°SW
Pressure: 30.25"   Gusts: NA
Location:  41.64°N, 87.74°W
Report Text: KMDW 181819Z 23006KT 10SM SCT021 BKN250 M03/M08 A3025 RMK AO2 T10281078
Loading
Personal Weather Stations






























Interactive Weather Map New forecast layout! Learn more

10-Day Weather Forecast

Advertisements
Track Severe Weather on mobile